Terminal Aerodrome Forecast
Issued by NWS

Home | Current Version | Previous Version | Graphics & Text | Print | Product List | Glossary On
Versions: 1 2 3 4 5 6 7 8 9 10 11 12 13 14 15 16 17 18 19 20
000
FTUS43 KIWX 172016 AAA
TAFSBN
TAF AMD
KSBN 172016Z 1720/1818 26005KT P6SM VCTS BKN050CB
      TEMPO 1720/1723 6SM SHRA BKN050
     FM180200 VRB03KT P6SM BKN050=

USA.gov is the U.S. government's official web portal to all federal, state and local government web resources and services.